RYR159M EDDK-LEPA
Flight info
| Callsign | RYR159M |
|---|---|
| Flight time | 1h 45m |
| Altitude | 37000 |
| Route | NVO3F NVO Y868 NAVAK Z283 SOPOK DCT ROUSY DCT GTQ DCT POGOL DCT LASAT DCT MOROK DCT GILIR DCT GEVEA DCT INCUS DCT BALSI DCT RETNO DCT TUPOX DCT MTG DCT DIVKO DCT VATIR DCT PIVUS DCT BODEQ DCT VERSO L129 LUNIK LUNIK2P |
| Aircraft | A320/M-SDE3FGHIRWY/LB1 |
Departure
| Time | 2026-04-21 08:18 |
|---|---|
| Airport | Cologne Bonn Airport (EDDK) |
Arrival
| Time | 2026-04-21 10:03 |
|---|---|
| Airport | Palma de Mallorca Airport (LEPA) |
| Time | Latitude | Longitude | Altitude | Speed | Heading |
|---|---|---|---|---|---|
| 2026-04-21 08:13 | 50.87754 | 7.12471 | 235 ft | 2 kts | 288° |
| 2026-04-21 08:14 | 50.87745 | 7.12505 | 237 ft | 4 kts | 311° |
| 2026-04-21 08:14 | 50.87725 | 7.12525 | 232 ft | 4 kts | 1° |
| 2026-04-21 08:14 | 50.87699 | 7.12516 | 232 ft | 4 kts | 22° |
| 2026-04-21 08:14 | 50.87683 | 7.12506 | 234 ft | 0 kts | 18° |
| 2026-04-21 08:16 | 50.87684 | 7.12507 | 233 ft | 2 kts | 18° |
| 2026-04-21 08:16 | 50.87744 | 7.12538 | 236 ft | 12 kts | 18° |
| 2026-04-21 08:17 | 50.87846 | 7.12590 | 232 ft | 18 kts | 18° |
| 2026-04-21 08:17 | 50.87962 | 7.12671 | 234 ft | 19 kts | 38° |
| 2026-04-21 08:17 | 50.88007 | 7.12840 | 239 ft | 16 kts | 90° |
| 2026-04-21 08:17 | 50.87979 | 7.13010 | 239 ft | 17 kts | 131° |
| 2026-04-21 08:18 | 50.87844 | 7.13207 | 239 ft | 54 kts | 137° |
| 2026-04-21 08:18 | 50.87394 | 7.13860 | 241 ft | 119 kts | 136° |
| 2026-04-21 08:18 | 50.86660 | 7.14927 | 334 ft | 159 kts | 135° |
| 2026-04-21 08:18 | 50.85837 | 7.16081 | 966 ft | 159 kts | 136° |
| 2026-04-21 08:19 | 50.84994 | 7.17256 | 1703 ft | 163 kts | 136° |
| 2026-04-21 08:19 | 50.84109 | 7.18482 | 2184 ft | 180 kts | 136° |
| 2026-04-21 08:19 | 50.83116 | 7.19851 | 2482 ft | 203 kts | 139° |
| 2026-04-21 08:19 | 50.81717 | 7.20752 | 2837 ft | 235 kts | 176° |
| 2026-04-21 08:20 | 50.80028 | 7.20440 | 3342 ft | 256 kts | 186° |
| 2026-04-21 08:20 | 50.78254 | 7.19929 | 4210 ft | 262 kts | 187° |
| 2026-04-21 08:20 | 50.76450 | 7.19380 | 5139 ft | 266 kts | 187° |
| 2026-04-21 08:20 | 50.74615 | 7.18825 | 6009 ft | 271 kts | 187° |
| 2026-04-21 08:21 | 50.72746 | 7.18273 | 6865 ft | 276 kts | 187° |
| 2026-04-21 08:21 | 50.70845 | 7.17725 | 7690 ft | 280 kts | 187° |
| 2026-04-21 08:21 | 50.68909 | 7.17178 | 8553 ft | 285 kts | 186° |
| 2026-04-21 08:21 | 50.66945 | 7.16631 | 9400 ft | 289 kts | 186° |
| 2026-04-21 08:22 | 50.64945 | 7.16078 | 10210 ft | 295 kts | 186° |
| 2026-04-21 08:22 | 50.62846 | 7.15502 | 10517 ft | 318 kts | 186° |
| 2026-04-21 08:22 | 50.60590 | 7.14885 | 10799 ft | 339 kts | 187° |
| 2026-04-21 08:22 | 50.58239 | 7.14238 | 11401 ft | 346 kts | 187° |
| 2026-04-21 08:23 | 50.55849 | 7.13577 | 12135 ft | 351 kts | 187° |
| 2026-04-21 08:23 | 50.53432 | 7.12906 | 12867 ft | 355 kts | 188° |
| 2026-04-21 08:23 | 50.50989 | 7.12228 | 13601 ft | 359 kts | 188° |
| 2026-04-21 08:23 | 50.48519 | 7.11546 | 14282 ft | 363 kts | 188° |
| 2026-04-21 08:24 | 50.46018 | 7.10858 | 14913 ft | 367 kts | 188° |
| 2026-04-21 08:24 | 50.43493 | 7.10166 | 15545 ft | 370 kts | 188° |
| 2026-04-21 08:24 | 50.40941 | 7.09467 | 16183 ft | 374 kts | 189° |
| 2026-04-21 08:24 | 50.38398 | 7.08773 | 16784 ft | 378 kts | 189° |
| 2026-04-21 08:25 | 50.35794 | 7.08063 | 17395 ft | 382 kts | 189° |
| 2026-04-21 08:25 | 50.33165 | 7.07346 | 18010 ft | 386 kts | 189° |
| 2026-04-21 08:25 | 50.30512 | 7.06621 | 18615 ft | 389 kts | 189° |
| 2026-04-21 08:25 | 50.27834 | 7.05887 | 19147 ft | 392 kts | 189° |
| 2026-04-21 08:26 | 50.25132 | 7.05146 | 19693 ft | 396 kts | 189° |
| 2026-04-21 08:26 | 50.22409 | 7.04399 | 20246 ft | 399 kts | 189° |
| 2026-04-21 08:26 | 50.19664 | 7.03655 | 20795 ft | 402 kts | 189° |
| 2026-04-21 08:26 | 50.16905 | 7.02909 | 21339 ft | 405 kts | 190° |
| 2026-04-21 08:27 | 50.14116 | 7.02153 | 21883 ft | 408 kts | 190° |
| 2026-04-21 08:27 | 50.11313 | 7.01393 | 22421 ft | 411 kts | 190° |
| 2026-04-21 08:27 | 50.08490 | 7.00630 | 22940 ft | 414 kts | 190° |
| 2026-04-21 08:27 | 50.05644 | 6.99862 | 23451 ft | 416 kts | 190° |
| 2026-04-21 08:28 | 50.02779 | 6.99087 | 23919 ft | 419 kts | 190° |
| 2026-04-21 08:28 | 49.99897 | 6.98305 | 24319 ft | 422 kts | 190° |
| 2026-04-21 08:28 | 49.96997 | 6.97521 | 24700 ft | 424 kts | 190° |
| 2026-04-21 08:28 | 49.94078 | 6.96733 | 25102 ft | 427 kts | 191° |
| 2026-04-21 08:29 | 49.91150 | 6.95948 | 25486 ft | 429 kts | 191° |
| 2026-04-21 08:29 | 49.88238 | 6.95173 | 25850 ft | 431 kts | 191° |
| 2026-04-21 08:29 | 49.85274 | 6.94386 | 26225 ft | 433 kts | 191° |
| 2026-04-21 08:29 | 49.82299 | 6.93592 | 26595 ft | 436 kts | 191° |
| 2026-04-21 08:30 | 49.79303 | 6.92792 | 26954 ft | 438 kts | 192° |
| 2026-04-21 08:30 | 49.76289 | 6.91986 | 27297 ft | 441 kts | 192° |
| 2026-04-21 08:30 | 49.73260 | 6.91177 | 27624 ft | 443 kts | 192° |
| 2026-04-21 08:30 | 49.70211 | 6.90364 | 27943 ft | 446 kts | 192° |
| 2026-04-21 08:31 | 49.67141 | 6.89546 | 28272 ft | 449 kts | 192° |
| 2026-04-21 08:31 | 49.64052 | 6.88725 | 28584 ft | 452 kts | 193° |
| 2026-04-21 08:31 | 49.60949 | 6.87901 | 28881 ft | 454 kts | 193° |
| 2026-04-21 08:31 | 49.57827 | 6.87075 | 29169 ft | 457 kts | 193° |
| 2026-04-21 08:32 | 49.54683 | 6.86245 | 29441 ft | 459 kts | 194° |
| 2026-04-21 08:32 | 49.51523 | 6.85413 | 29712 ft | 462 kts | 194° |
| 2026-04-21 08:32 | 49.48347 | 6.84575 | 29973 ft | 465 kts | 194° |
| 2026-04-21 08:32 | 49.45155 | 6.83732 | 30226 ft | 467 kts | 195° |
| 2026-04-21 08:33 | 49.41942 | 6.82887 | 30435 ft | 469 kts | 195° |
| 2026-04-21 08:33 | 49.38719 | 6.82042 | 30648 ft | 471 kts | 195° |
| 2026-04-21 08:33 | 49.35520 | 6.81206 | 30853 ft | 473 kts | 195° |
| 2026-04-21 08:33 | 49.32272 | 6.80358 | 31061 ft | 475 kts | 195° |
| 2026-04-21 08:34 | 49.29013 | 6.79511 | 31332 ft | 475 kts | 195° |
| 2026-04-21 08:34 | 49.25764 | 6.78665 | 31621 ft | 474 kts | 195° |
| 2026-04-21 08:34 | 49.22513 | 6.77816 | 31905 ft | 474 kts | 195° |
| 2026-04-21 08:34 | 49.19266 | 6.76967 | 32197 ft | 473 kts | 195° |
| 2026-04-21 08:35 | 49.16021 | 6.76118 | 32481 ft | 473 kts | 195° |
| 2026-04-21 08:35 | 49.12778 | 6.75273 | 32763 ft | 473 kts | 195° |
| 2026-04-21 08:35 | 49.09537 | 6.74432 | 33044 ft | 472 kts | 195° |
| 2026-04-21 08:35 | 49.06294 | 6.73591 | 33318 ft | 472 kts | 195° |
| 2026-04-21 08:36 | 49.03056 | 6.72749 | 33596 ft | 472 kts | 196° |
| 2026-04-21 08:36 | 48.99823 | 6.71920 | 33880 ft | 472 kts | 194° |
| 2026-04-21 08:36 | 48.96528 | 6.71525 | 34159 ft | 478 kts | 187° |
| 2026-04-21 08:36 | 48.93198 | 6.71411 | 34397 ft | 478 kts | 187° |
| 2026-04-21 08:37 | 48.89878 | 6.71285 | 34629 ft | 478 kts | 187° |
| 2026-04-21 08:37 | 48.86553 | 6.71149 | 34852 ft | 477 kts | 187° |
| 2026-04-21 08:37 | 48.83237 | 6.71013 | 35070 ft | 477 kts | 187° |
| 2026-04-21 08:37 | 48.79914 | 6.70880 | 35283 ft | 477 kts | 187° |
| 2026-04-21 08:38 | 48.76599 | 6.70751 | 35493 ft | 477 kts | 187° |
| 2026-04-21 08:38 | 48.73284 | 6.70620 | 35706 ft | 477 kts | 187° |
| 2026-04-21 08:38 | 48.69970 | 6.70488 | 35904 ft | 476 kts | 187° |
| 2026-04-21 08:38 | 48.66659 | 6.70352 | 36118 ft | 476 kts | 187° |
| 2026-04-21 08:39 | 48.63347 | 6.70220 | 36313 ft | 476 kts | 187° |
| 2026-04-21 08:39 | 48.60040 | 6.70096 | 36506 ft | 475 kts | 186° |
| 2026-04-21 08:39 | 48.56777 | 6.69976 | 36688 ft | 475 kts | 186° |
| 2026-04-21 08:39 | 48.53476 | 6.69853 | 36876 ft | 475 kts | 186° |
| 2026-04-21 08:40 | 48.50173 | 6.69726 | 37060 ft | 474 kts | 186° |
| 2026-04-21 08:40 | 48.43575 | 6.69462 | 37144 ft | 474 kts | 186° |
| 2026-04-21 08:41 | 48.36986 | 6.69210 | 37135 ft | 474 kts | 186° |
| 2026-04-21 08:41 | 48.30386 | 6.68957 | 37131 ft | 475 kts | 187° |
| 2026-04-21 08:42 | 48.23776 | 6.68704 | 37125 ft | 476 kts | 187° |
| 2026-04-21 08:42 | 48.17152 | 6.68457 | 37120 ft | 476 kts | 187° |
| 2026-04-21 08:43 | 48.10528 | 6.68208 | 37112 ft | 477 kts | 187° |
| 2026-04-21 08:43 | 48.03894 | 6.67946 | 37100 ft | 477 kts | 187° |
| 2026-04-21 08:44 | 47.97302 | 6.67688 | 37099 ft | 477 kts | 187° |
| 2026-04-21 08:44 | 47.90666 | 6.67440 | 37093 ft | 477 kts | 187° |
| 2026-04-21 08:45 | 47.84032 | 6.67201 | 37097 ft | 477 kts | 187° |
| 2026-04-21 08:45 | 47.77512 | 6.66191 | 37101 ft | 466 kts | 199° |
| 2026-04-21 08:46 | 47.71213 | 6.63944 | 37097 ft | 465 kts | 200° |
| 2026-04-21 08:46 | 47.64926 | 6.61677 | 37107 ft | 465 kts | 200° |
| 2026-04-21 08:47 | 47.58646 | 6.59432 | 37110 ft | 464 kts | 200° |
| 2026-04-21 08:47 | 47.52372 | 6.57203 | 37112 ft | 463 kts | 199° |
| 2026-04-21 08:48 | 47.46116 | 6.54993 | 37116 ft | 462 kts | 199° |
| 2026-04-21 08:48 | 47.39869 | 6.52784 | 37116 ft | 461 kts | 200° |
| 2026-04-21 08:49 | 47.33636 | 6.50581 | 37112 ft | 460 kts | 200° |
| 2026-04-21 08:49 | 47.27419 | 6.48391 | 37087 ft | 459 kts | 199° |
| 2026-04-21 08:50 | 47.21208 | 6.46213 | 37078 ft | 459 kts | 200° |
| 2026-04-21 08:50 | 47.15045 | 6.44052 | 37073 ft | 458 kts | 200° |
| 2026-04-21 08:51 | 47.08855 | 6.41887 | 37069 ft | 457 kts | 200° |
| 2026-04-21 08:51 | 47.02663 | 6.39730 | 37064 ft | 457 kts | 200° |
| 2026-04-21 08:52 | 46.96485 | 6.37584 | 37060 ft | 456 kts | 200° |
| 2026-04-21 08:52 | 46.90308 | 6.35438 | 37059 ft | 456 kts | 200° |
| 2026-04-21 08:53 | 46.84126 | 6.33303 | 37057 ft | 456 kts | 200° |
| 2026-04-21 08:53 | 46.77959 | 6.31172 | 37055 ft | 456 kts | 200° |
| 2026-04-21 08:54 | 46.71786 | 6.29042 | 37053 ft | 456 kts | 200° |
| 2026-04-21 08:54 | 46.65616 | 6.26918 | 37047 ft | 455 kts | 199° |
| 2026-04-21 08:55 | 46.59450 | 6.24807 | 37053 ft | 456 kts | 199° |
| 2026-04-21 08:55 | 46.53323 | 6.22713 | 37060 ft | 455 kts | 199° |
| 2026-04-21 08:56 | 46.47162 | 6.20606 | 37062 ft | 455 kts | 199° |
| 2026-04-21 08:56 | 46.41010 | 6.18506 | 37070 ft | 455 kts | 199° |
| 2026-04-21 08:57 | 46.34846 | 6.16416 | 37078 ft | 454 kts | 199° |
| 2026-04-21 08:57 | 46.28696 | 6.14335 | 37087 ft | 454 kts | 199° |
| 2026-04-21 08:58 | 46.22522 | 6.12377 | 37078 ft | 456 kts | 196° |
| 2026-04-21 08:58 | 46.16244 | 6.10964 | 37085 ft | 457 kts | 193° |
| 2026-04-21 08:59 | 46.09937 | 6.09740 | 37082 ft | 457 kts | 194° |
| 2026-04-21 08:59 | 46.03649 | 6.08424 | 37052 ft | 456 kts | 194° |
| 2026-04-21 09:00 | 45.97429 | 6.07030 | 37055 ft | 455 kts | 195° |
| 2026-04-21 09:00 | 45.91175 | 6.05618 | 37053 ft | 455 kts | 195° |
| 2026-04-21 09:01 | 45.84914 | 6.04232 | 37050 ft | 455 kts | 194° |
| 2026-04-21 09:01 | 45.78658 | 6.02862 | 37046 ft | 455 kts | 194° |
| 2026-04-21 09:02 | 45.72408 | 6.01491 | 37051 ft | 454 kts | 194° |
| 2026-04-21 09:02 | 45.66169 | 6.00121 | 37049 ft | 454 kts | 195° |
| 2026-04-21 09:03 | 45.56808 | 5.98061 | 37049 ft | 454 kts | 195° |
| 2026-04-21 09:03 | 45.50574 | 5.96693 | 37044 ft | 453 kts | 195° |
| 2026-04-21 09:04 | 45.44364 | 5.95207 | 37029 ft | 451 kts | 197° |
| 2026-04-21 09:04 | 45.38294 | 5.93288 | 37022 ft | 449 kts | 200° |
| 2026-04-21 09:05 | 45.32213 | 5.91237 | 37017 ft | 449 kts | 199° |
| 2026-04-21 09:05 | 45.26108 | 5.89275 | 37005 ft | 450 kts | 199° |
| 2026-04-21 09:06 | 45.19989 | 5.87388 | 37001 ft | 451 kts | 198° |
| 2026-04-21 09:06 | 45.14897 | 5.85836 | 37000 ft | 450 kts | 198° |
| 2026-04-21 09:07 | 45.08770 | 5.83955 | 36993 ft | 450 kts | 198° |
| 2026-04-21 09:07 | 45.02649 | 5.82057 | 36988 ft | 450 kts | 199° |
| 2026-04-21 09:08 | 44.96527 | 5.80165 | 36993 ft | 450 kts | 198° |
| 2026-04-21 09:08 | 44.90404 | 5.78280 | 36976 ft | 450 kts | 198° |
| 2026-04-21 09:09 | 44.84284 | 5.76400 | 36970 ft | 450 kts | 198° |
| 2026-04-21 09:09 | 44.78162 | 5.74522 | 36966 ft | 450 kts | 198° |
| 2026-04-21 09:10 | 44.72040 | 5.72653 | 36959 ft | 450 kts | 198° |
| 2026-04-21 09:10 | 44.65964 | 5.70802 | 36957 ft | 450 kts | 198° |
| 2026-04-21 09:11 | 44.59851 | 5.68953 | 36963 ft | 449 kts | 198° |
| 2026-04-21 09:11 | 44.53741 | 5.67103 | 36952 ft | 449 kts | 198° |
| 2026-04-21 09:12 | 44.47639 | 5.65245 | 36954 ft | 449 kts | 198° |
| 2026-04-21 09:12 | 44.41537 | 5.63407 | 36948 ft | 448 kts | 198° |
| 2026-04-21 09:13 | 44.35592 | 5.61036 | 36950 ft | 440 kts | 207° |
| 2026-04-21 09:13 | 44.29902 | 5.57896 | 36934 ft | 440 kts | 207° |
| 2026-04-21 09:14 | 44.24202 | 5.54774 | 36932 ft | 440 kts | 207° |
| 2026-04-21 09:14 | 44.18498 | 5.51668 | 36931 ft | 440 kts | 207° |
| 2026-04-21 09:15 | 44.12797 | 5.48553 | 36936 ft | 440 kts | 207° |
| 2026-04-21 09:15 | 44.07090 | 5.45455 | 36935 ft | 440 kts | 207° |
| 2026-04-21 09:16 | 44.01434 | 5.42385 | 36934 ft | 440 kts | 207° |
| 2026-04-21 09:16 | 43.95736 | 5.39298 | 36925 ft | 440 kts | 207° |
| 2026-04-21 09:17 | 43.90041 | 5.36218 | 36932 ft | 439 kts | 207° |
| 2026-04-21 09:17 | 43.84341 | 5.33140 | 36925 ft | 439 kts | 207° |
| 2026-04-21 09:18 | 43.78646 | 5.30071 | 36925 ft | 439 kts | 207° |
| 2026-04-21 09:18 | 43.72954 | 5.27005 | 36925 ft | 439 kts | 207° |
| 2026-04-21 09:19 | 43.67270 | 5.23944 | 36925 ft | 439 kts | 207° |
| 2026-04-21 09:19 | 43.61581 | 5.20895 | 36930 ft | 438 kts | 207° |
| 2026-04-21 09:20 | 43.55897 | 5.17856 | 36926 ft | 438 kts | 207° |
| 2026-04-21 09:20 | 43.50217 | 5.14827 | 36931 ft | 438 kts | 207° |
| 2026-04-21 09:21 | 43.44535 | 5.11809 | 36944 ft | 437 kts | 207° |
| 2026-04-21 09:21 | 43.38910 | 5.08680 | 36941 ft | 432 kts | 213° |
| 2026-04-21 09:22 | 43.33921 | 5.04259 | 36936 ft | 425 kts | 220° |
| 2026-04-21 09:22 | 43.29088 | 4.99678 | 36933 ft | 425 kts | 220° |
| 2026-04-21 09:23 | 43.24210 | 4.95077 | 36935 ft | 425 kts | 220° |
| 2026-04-21 09:23 | 43.19330 | 4.90503 | 36930 ft | 425 kts | 220° |
| 2026-04-21 09:24 | 43.14448 | 4.85926 | 36935 ft | 425 kts | 220° |
| 2026-04-21 09:24 | 43.09568 | 4.81362 | 36942 ft | 425 kts | 220° |
| 2026-04-21 09:25 | 43.04617 | 4.76918 | 36942 ft | 429 kts | 214° |
| 2026-04-21 09:25 | 42.99400 | 4.72968 | 36941 ft | 429 kts | 214° |
| 2026-04-21 09:26 | 42.94187 | 4.69015 | 36944 ft | 429 kts | 214° |
| 2026-04-21 09:26 | 42.88971 | 4.65066 | 36944 ft | 429 kts | 214° |
| 2026-04-21 09:27 | 42.83796 | 4.61154 | 36948 ft | 429 kts | 214° |
| 2026-04-21 09:27 | 42.78579 | 4.57222 | 36952 ft | 429 kts | 214° |
| 2026-04-21 09:28 | 42.73357 | 4.53294 | 36953 ft | 429 kts | 214° |
| 2026-04-21 09:28 | 42.68136 | 4.49371 | 36954 ft | 429 kts | 214° |
| 2026-04-21 09:29 | 42.62915 | 4.45460 | 36952 ft | 429 kts | 214° |
| 2026-04-21 09:29 | 42.57692 | 4.41561 | 36952 ft | 429 kts | 214° |
| 2026-04-21 09:30 | 42.52463 | 4.37660 | 36953 ft | 429 kts | 214° |
| 2026-04-21 09:30 | 42.47241 | 4.33763 | 36953 ft | 429 kts | 214° |
| 2026-04-21 09:31 | 42.42014 | 4.29878 | 36956 ft | 429 kts | 214° |
| 2026-04-21 09:31 | 42.36787 | 4.25996 | 36956 ft | 429 kts | 214° |
| 2026-04-21 09:32 | 42.31590 | 4.22146 | 36954 ft | 429 kts | 214° |
| 2026-04-21 09:32 | 42.26353 | 4.18280 | 36955 ft | 429 kts | 214° |
| 2026-04-21 09:33 | 42.21125 | 4.14422 | 36960 ft | 429 kts | 213° |
| 2026-04-21 09:33 | 42.15889 | 4.10562 | 36953 ft | 429 kts | 213° |
| 2026-04-21 09:34 | 42.10657 | 4.06718 | 36959 ft | 429 kts | 213° |
| 2026-04-21 09:34 | 42.05413 | 4.02876 | 36959 ft | 429 kts | 213° |
| 2026-04-21 09:35 | 42.00176 | 3.99044 | 36954 ft | 429 kts | 213° |
| 2026-04-21 09:35 | 41.94933 | 3.95219 | 36958 ft | 429 kts | 212° |
| 2026-04-21 09:36 | 41.89238 | 3.92609 | 36953 ft | 440 kts | 194° |
| 2026-04-21 09:36 | 41.83240 | 3.91243 | 36951 ft | 440 kts | 194° |
| 2026-04-21 09:37 | 41.77200 | 3.89869 | 36953 ft | 440 kts | 194° |
| 2026-04-21 09:37 | 41.71164 | 3.88477 | 36959 ft | 440 kts | 194° |
| 2026-04-21 09:38 | 41.65132 | 3.87085 | 36958 ft | 440 kts | 194° |
| 2026-04-21 09:38 | 41.59094 | 3.85705 | 36964 ft | 440 kts | 194° |
| 2026-04-21 09:39 | 41.53049 | 3.84324 | 36597 ft | 441 kts | 194° |
| 2026-04-21 09:39 | 41.50023 | 3.83628 | 36334 ft | 441 kts | 194° |
| 2026-04-21 09:39 | 41.47000 | 3.82928 | 36065 ft | 442 kts | 194° |
| 2026-04-21 09:40 | 41.43972 | 3.82229 | 35814 ft | 442 kts | 194° |
| 2026-04-21 09:40 | 41.40935 | 3.81535 | 35562 ft | 443 kts | 194° |
| 2026-04-21 09:40 | 41.37894 | 3.80844 | 35307 ft | 444 kts | 194° |
| 2026-04-21 09:40 | 41.34889 | 3.80159 | 35061 ft | 444 kts | 194° |
| 2026-04-21 09:41 | 41.31843 | 3.79466 | 34815 ft | 445 kts | 194° |
| 2026-04-21 09:41 | 41.28793 | 3.78772 | 34568 ft | 445 kts | 194° |
| 2026-04-21 09:41 | 41.25739 | 3.78074 | 34326 ft | 446 kts | 194° |
| 2026-04-21 09:41 | 41.22679 | 3.77375 | 34086 ft | 446 kts | 193° |
| 2026-04-21 09:42 | 41.19619 | 3.76676 | 33826 ft | 447 kts | 193° |
| 2026-04-21 09:42 | 41.16555 | 3.75973 | 33547 ft | 447 kts | 195° |
| 2026-04-21 09:42 | 41.13575 | 3.74906 | 33280 ft | 442 kts | 203° |
| 2026-04-21 09:42 | 41.10678 | 3.73528 | 33009 ft | 442 kts | 203° |
| 2026-04-21 09:43 | 41.07799 | 3.72160 | 32519 ft | 438 kts | 203° |
| 2026-04-21 09:43 | 41.04944 | 3.70807 | 31918 ft | 433 kts | 203° |
| 2026-04-21 09:43 | 41.02120 | 3.69468 | 31326 ft | 429 kts | 203° |
| 2026-04-21 09:43 | 40.99319 | 3.68146 | 30744 ft | 426 kts | 203° |
| 2026-04-21 09:44 | 40.96537 | 3.66838 | 30168 ft | 423 kts | 203° |
| 2026-04-21 09:44 | 40.93779 | 3.65538 | 29549 ft | 419 kts | 203° |
| 2026-04-21 09:44 | 40.91048 | 3.64254 | 28994 ft | 414 kts | 203° |
| 2026-04-21 09:44 | 40.88349 | 3.62985 | 28450 ft | 410 kts | 203° |
| 2026-04-21 09:45 | 40.85710 | 3.61747 | 27918 ft | 405 kts | 203° |
| 2026-04-21 09:45 | 40.83067 | 3.60507 | 27384 ft | 402 kts | 203° |
| 2026-04-21 09:45 | 40.80445 | 3.59275 | 26863 ft | 398 kts | 203° |
| 2026-04-21 09:45 | 40.77847 | 3.58055 | 26342 ft | 395 kts | 203° |
| 2026-04-21 09:46 | 40.75273 | 3.56853 | 25845 ft | 392 kts | 203° |
| 2026-04-21 09:46 | 40.72714 | 3.55657 | 25351 ft | 389 kts | 203° |
| 2026-04-21 09:46 | 40.70174 | 3.54466 | 24874 ft | 386 kts | 203° |
| 2026-04-21 09:46 | 40.67655 | 3.53285 | 24403 ft | 384 kts | 203° |
| 2026-04-21 09:47 | 40.65142 | 3.52109 | 23930 ft | 381 kts | 203° |
| 2026-04-21 09:47 | 40.62652 | 3.50949 | 23448 ft | 379 kts | 203° |
| 2026-04-21 09:47 | 40.60176 | 3.49799 | 22953 ft | 376 kts | 202° |
| 2026-04-21 09:47 | 40.57726 | 3.48664 | 22495 ft | 371 kts | 202° |
| 2026-04-21 09:48 | 40.55300 | 3.47538 | 22038 ft | 368 kts | 202° |
| 2026-04-21 09:48 | 40.52897 | 3.46419 | 21594 ft | 365 kts | 202° |
| 2026-04-21 09:48 | 40.50514 | 3.45312 | 21136 ft | 362 kts | 202° |
| 2026-04-21 09:48 | 40.48152 | 3.44215 | 20678 ft | 359 kts | 202° |
| 2026-04-21 09:49 | 40.45801 | 3.43122 | 20221 ft | 357 kts | 202° |
| 2026-04-21 09:49 | 40.43466 | 3.42032 | 19755 ft | 356 kts | 202° |
| 2026-04-21 09:49 | 40.41134 | 3.40945 | 19287 ft | 354 kts | 202° |
| 2026-04-21 09:49 | 40.38845 | 3.39881 | 18825 ft | 354 kts | 202° |
| 2026-04-21 09:50 | 40.36525 | 3.38807 | 18367 ft | 353 kts | 201° |
| 2026-04-21 09:50 | 40.35745 | 3.38447 | 18185 ft | 353 kts | 201° |
| 2026-04-21 09:50 | 40.29622 | 3.35623 | 16939 ft | 348 kts | 201° |
| 2026-04-21 09:51 | 40.27346 | 3.34577 | 16495 ft | 346 kts | 201° |
| 2026-04-21 09:51 | 40.25079 | 3.33537 | 16043 ft | 344 kts | 201° |
| 2026-04-21 09:51 | 40.22825 | 3.32501 | 15604 ft | 343 kts | 201° |
| 2026-04-21 09:51 | 40.20580 | 3.31467 | 15163 ft | 342 kts | 202° |
| 2026-04-21 09:52 | 40.18344 | 3.30436 | 14720 ft | 341 kts | 202° |
| 2026-04-21 09:52 | 40.16111 | 3.29410 | 14274 ft | 340 kts | 201° |
| 2026-04-21 09:52 | 40.13882 | 3.28389 | 13826 ft | 339 kts | 201° |
| 2026-04-21 09:52 | 40.11657 | 3.27373 | 13346 ft | 338 kts | 201° |
| 2026-04-21 09:53 | 40.09447 | 3.26361 | 12891 ft | 335 kts | 201° |
| 2026-04-21 09:53 | 40.07256 | 3.25353 | 12444 ft | 333 kts | 201° |
| 2026-04-21 09:53 | 40.05081 | 3.24349 | 11989 ft | 331 kts | 201° |
| 2026-04-21 09:53 | 40.02915 | 3.23349 | 11534 ft | 329 kts | 201° |
| 2026-04-21 09:54 | 40.00764 | 3.22363 | 11082 ft | 327 kts | 200° |
| 2026-04-21 09:54 | 39.98622 | 3.21386 | 10624 ft | 325 kts | 200° |
| 2026-04-21 09:54 | 39.96494 | 3.20414 | 10263 ft | 321 kts | 200° |
| 2026-04-21 09:54 | 39.94426 | 3.19470 | 10141 ft | 309 kts | 200° |
| 2026-04-21 09:55 | 39.92437 | 3.18561 | 10013 ft | 298 kts | 200° |
| 2026-04-21 09:55 | 39.90500 | 3.17676 | 9762 ft | 292 kts | 200° |
| 2026-04-21 09:55 | 39.88616 | 3.16815 | 9406 ft | 290 kts | 200° |
| 2026-04-21 09:55 | 39.86697 | 3.15942 | 9043 ft | 287 kts | 200° |
| 2026-04-21 09:56 | 39.84845 | 3.15097 | 8662 ft | 287 kts | 200° |
| 2026-04-21 09:56 | 39.82995 | 3.14252 | 8262 ft | 277 kts | 200° |
| 2026-04-21 09:56 | 39.81187 | 3.13429 | 7893 ft | 274 kts | 199° |
| 2026-04-21 09:56 | 39.79391 | 3.12615 | 7525 ft | 273 kts | 199° |
| 2026-04-21 09:57 | 39.77602 | 3.11805 | 7164 ft | 272 kts | 199° |
| 2026-04-21 09:57 | 39.75823 | 3.10995 | 6790 ft | 270 kts | 199° |
| 2026-04-21 09:57 | 39.74053 | 3.10188 | 6456 ft | 269 kts | 199° |
| 2026-04-21 09:57 | 39.72289 | 3.09375 | 6085 ft | 268 kts | 202° |
| 2026-04-21 09:58 | 39.70722 | 3.08089 | 5613 ft | 268 kts | 224° |
| 2026-04-21 09:58 | 39.69626 | 3.06170 | 5000 ft | 265 kts | 238° |
| 2026-04-21 09:58 | 39.68676 | 3.04125 | 4394 ft | 264 kts | 239° |
| 2026-04-21 09:58 | 39.67736 | 3.02105 | 3895 ft | 257 kts | 238° |
| 2026-04-21 09:59 | 39.66827 | 3.00160 | 3507 ft | 248 kts | 237° |
| 2026-04-21 09:59 | 39.65946 | 2.98275 | 3138 ft | 240 kts | 237° |
| 2026-04-21 09:59 | 39.65080 | 2.96432 | 2997 ft | 236 kts | 238° |
| 2026-04-21 09:59 | 39.64250 | 2.94662 | 3002 ft | 225 kts | 238° |
| 2026-04-21 10:00 | 39.63458 | 2.92979 | 2906 ft | 219 kts | 237° |
| 2026-04-21 10:00 | 39.62665 | 2.91294 | 2627 ft | 216 kts | 238° |
| 2026-04-21 10:00 | 39.61922 | 2.89711 | 2414 ft | 197 kts | 237° |
| 2026-04-21 10:00 | 39.61218 | 2.88215 | 2140 ft | 194 kts | 237° |
| 2026-04-21 10:01 | 39.60523 | 2.86732 | 1880 ft | 190 kts | 237° |
| 2026-04-21 10:01 | 39.59857 | 2.85286 | 1645 ft | 181 kts | 237° |
| 2026-04-21 10:01 | 39.59231 | 2.83940 | 1428 ft | 171 kts | 237° |
| 2026-04-21 10:01 | 39.58618 | 2.82675 | 1254 ft | 163 kts | 237° |
| 2026-04-21 10:02 | 39.57506 | 2.80307 | 838 ft | 148 kts | 237° |
| 2026-04-21 10:02 | 39.56980 | 2.79204 | 620 ft | 141 kts | 237° |
| 2026-04-21 10:02 | 39.56466 | 2.78117 | 416 ft | 141 kts | 237° |
| 2026-04-21 10:03 | 39.55944 | 2.77028 | 221 ft | 141 kts | 239° |
| 2026-04-21 10:03 | 39.55440 | 2.75953 | 46 ft | 138 kts | 239° |
| 2026-04-21 10:03 | 39.54994 | 2.75015 | 30 ft | 102 kts | 237° |
| 2026-04-21 10:03 | 39.54833 | 2.74608 | 30 ft | 15 kts | 262° |
| 2026-04-21 10:04 | 39.54813 | 2.74482 | 30 ft | 15 kts | 261° |
| 2026-04-21 10:04 | 39.54804 | 2.74339 | 30 ft | 17 kts | 267° |
| 2026-04-21 10:04 | 39.54804 | 2.74264 | 30 ft | 9 kts | 270° |
| 2026-04-21 10:04 | 39.54818 | 2.74161 | 30 ft | 17 kts | 297° |
| 2026-04-21 10:05 | 39.54923 | 2.74051 | 30 ft | 11 kts | 330° |
| 2026-04-21 10:05 | 39.54940 | 2.73980 | 30 ft | 13 kts | 233° |
| 2026-04-21 10:05 | 39.54996 | 2.73890 | 30 ft | 8 kts | 325° |
| 2026-04-21 10:05 | 39.54972 | 2.73821 | 30 ft | 15 kts | 239° |
| 2026-04-21 10:06 | 39.54947 | 2.73769 | 30 ft | 0 kts | 238° |